Time;durP1;ratioP1;P1;durP2;ratioP2;P2;SDS_P1;SDS_P2;PMS_P1;PMS_P2;Temp;Humidity;BMP_temperature;BMP_pressure;BME280_temperature;BME280_humidity;BME280_pressure;Samples;Min_cycle;Max_cycle;Signal;HPM_P1;HPM_P2
2023/12/11 00:01:33;;;;;;;7.43;5.10;;;9.70;99.90;;;11.46;75.82;99393.06;3082705;46;20428;-66
2023/12/11 00:04:02;;;;;;;7.50;5.10;;;9.70;99.90;;;11.50;75.94;99384.53;3082037;46;20467;-65
2023/12/11 00:06:30;;;;;;;8.17;5.20;;;9.80;99.90;;;11.56;76.13;99382.88;3082718;46;20460;-65
2023/12/11 00:08:59;;;;;;;7.50;5.83;;;9.80;99.90;;;11.62;76.00;99391.75;3082658;46;20431;-66
2023/12/11 00:11:27;;;;;;;5.90;5.30;;;9.90;99.90;;;11.66;76.21;99393.75;3082531;46;20514;-65
2023/12/11 00:13:55;;;;;;;6.47;5.00;;;9.90;99.90;;;11.72;76.40;99387.63;3081410;46;20531;-66
2023/12/11 00:16:24;;;;;;;6.27;5.00;;;10.00;99.90;;;11.79;76.30;99387.59;3082455;46;20431;-66
2023/12/11 00:18:52;;;;;;;5.17;4.17;;;10.10;99.90;;;11.83;76.57;99384.31;3082374;46;20514;-66
2023/12/11 00:21:21;;;;;;;4.40;4.00;;;10.10;99.90;;;11.90;76.36;99387.69;3082617;46;20440;-66
2023/12/11 00:23:49;;;;;;;6.00;3.37;;;10.20;99.90;;;11.97;76.63;99391.09;3081807;46;21004;-65
2023/12/11 00:26:18;;;;;;;3.37;3.07;;;10.30;99.90;;;12.05;76.43;99403.19;3082228;46;21058;-66
2023/12/11 00:28:47;;;;;;;8.20;3.07;;;10.40;99.90;;;12.12;76.66;99409.22;3082311;46;20991;-66
2023/12/11 00:31:15;;;;;;;5.80;2.27;;;10.40;99.90;;;12.20;76.59;99408.91;3082412;46;20455;-66
2023/12/11 00:33:44;;;;;;;4.03;2.10;;;10.50;99.90;;;12.26;76.29;99418.63;3081565;46;20445;-66
2023/12/11 00:36:13;;;;;;;5.50;2.20;;;10.50;99.90;;;12.32;76.26;99419.56;3082285;46;20519;-66
2023/12/11 00:38:41;;;;;;;3.43;2.20;;;10.60;99.90;;;12.36;76.42;99426.81;3082325;46;20431;-66
2023/12/11 00:41:09;;;;;;;4.13;2.00;;;10.70;99.90;;;12.44;76.18;99423.09;3082320;46;20432;-66
2023/12/11 00:43:38;;;;;;;4.57;2.27;;;10.70;99.90;;;12.47;76.10;99418.19;3081720;46;20469;-66
2023/12/11 00:46:14;;;;;;;7.13;2.53;;;10.80;99.90;;;12.53;76.02;99424.41;3082068;46;20436;-66
2023/12/11 00:48:43;;;;;;;7.53;2.60;;;10.80;99.90;;;12.56;75.75;99426.63;3081820;46;20543;-66
2023/12/11 00:51:20;;;;;;;6.67;2.50;;;10.80;99.90;;;12.59;75.69;99442.03;3082157;46;20456;-67
2023/12/11 00:53:49;;;;;;;5.27;2.37;;;10.90;99.90;;;12.63;75.56;99448.47;3081586;46;20440;-66
2023/12/11 00:56:17;;;;;;;8.10;2.97;;;10.90;99.90;;;12.65;75.49;99449.84;3082242;46;20471;-66
2023/12/11 00:58:45;;;;;;;8.97;3.20;;;10.90;99.90;;;12.69;75.25;99443.09;3081883;46;20499;-66
2023/12/11 01:01:14;;;;;;;8.83;2.70;;;11.00;99.80;;;12.72;75.31;99452.41;3082095;46;20427;-66
2023/12/11 01:03:42;;;;;;;11.37;3.47;;;11.10;99.80;;;12.76;75.12;99448.34;3081596;46;20484;-62
2023/12/11 01:06:11;;;;;;;9.90;3.07;;;11.00;99.70;;;12.79;74.79;99453.16;3081988;46;20440;-66
2023/12/11 01:08:39;;;;;;;12.33;3.07;;;11.10;99.60;;;12.80;75.08;99454.78;3082184;46;21012;-66
2023/12/11 01:11:08;;;;;;;12.93;3.10;;;11.10;99.60;;;12.81;74.65;99451.13;3081986;46;20546;-66
2023/12/11 01:13:37;;;;;;;7.60;2.50;;;11.10;99.50;;;12.82;74.61;99442.16;3081669;46;20460;-64
2023/12/11 01:16:06;;;;;;;9.60;2.70;;;11.10;99.40;;;12.81;74.66;99451.13;3081689;46;20428;-66
2023/12/11 01:18:35;;;;;;;13.10;3.37;;;11.20;99.40;;;12.78;74.04;99467.41;3081786;46;20524;-66
2023/12/11 01:21:04;;;;;;;12.43;3.40;;;11.20;99.30;;;12.76;74.57;99474.75;3081769;46;20452;-66
2023/12/11 01:23:32;;;;;;;12.80;3.70;;;11.20;99.20;;;12.72;74.49;99481.47;3081529;46;21058;-66
2023/12/11 01:26:01;;;;;;;15.03;3.00;;;11.20;99.20;;;12.72;74.41;99481.47;3081678;46;20545;-66
2023/12/11 01:28:29;;;;;;;12.33;3.80;;;11.10;99.10;;;12.72;74.47;99484.09;3081849;46;20431;-65
2023/12/11 01:30:58;;;;;;;10.93;3.07;;;11.10;99.20;;;12.75;74.37;99494.22;3081490;46;21238;-64
2023/12/11 01:33:26;;;;;;;12.67;4.10;;;11.10;99.10;;;12.76;74.13;99490.56;3081250;46;20439;-65
2023/12/11 01:35:54;;;;;;;13.17;4.07;;;11.10;99.10;;;12.77;74.49;99498.28;3081387;46;20574;-66
2023/12/11 01:38:23;;;;;;;12.77;3.33;;;11.20;99.10;;;12.78;74.44;99493.81;3081765;46;21085;-67
2023/12/11 01:40:51;;;;;;;27.43;5.13;;;11.10;99.00;;;12.79;74.37;99490.13;3081457;46;20496;-64
2023/12/11 01:43:20;;;;;;;18.83;5.70;;;11.10;98.90;;;12.81;73.96;99501.28;3081485;46;20472;-66
2023/12/11 01:46:06;;;;;;;17.73;4.30;;;11.20;99.00;;;12.79;73.84;99503.31;3081645;46;20432;-66
2023/12/11 01:48:36;;;;;;;21.60;5.07;;;11.20;98.90;;;12.84;73.85;99503.47;3080946;46;20432;-66
2023/12/11 01:51:08;;;;;;;21.50;4.83;;;11.20;98.90;;;12.86;73.52;99506.69;3081736;46;20577;-66
2023/12/11 01:53:38;;;;;;;23.47;5.10;;;11.20;98.80;;;12.88;73.65;99515.25;3080550;46;20438;-64
2023/12/11 01:56:08;;;;;;;15.43;4.93;;;11.20;98.80;;;12.90;73.44;99518.47;3081501;46;20432;-66
2023/12/11 01:58:37;;;;;;;15.87;4.67;;;11.30;98.80;;;12.93;73.58;99517.22;3081594;46;20431;-65
2023/12/11 02:01:09;;;;;;;18.53;5.27;;;11.30;98.70;;;12.93;72.93;99515.38;3081347;46;20428;-66
2023/12/11 02:03:38;;;;;;;21.00;5.17;;;11.30;98.50;;;12.93;73.04;99507.47;3080094;46;20570;-66
2023/12/11 02:06:07;;;;;;;21.57;4.97;;;11.30;98.50;;;12.93;73.05;99508.25;3081293;46;20475;-66
2023/12/11 02:08:36;;;;;;;23.27;5.97;;;11.30;98.50;;;12.94;72.76;99516.97;3081313;46;20448;-66
2023/12/11 02:11:05;;;;;;;26.43;5.43;;;11.30;98.30;;;12.96;72.61;99517.56;3081150;46;21004;-65
2023/12/11 02:13:34;;;;;;;18.77;5.47;;;11.30;98.20;;;12.96;72.36;99522.03;3079912;46;20502;-66
2023/12/11 02:16:03;;;;;;;23.63;6.00;;;11.30;98.30;;;12.97;72.50;99513.91;3081212;46;20564;-66
2023/12/11 02:18:32;;;;;;;19.40;4.63;;;11.30;98.20;;;12.97;72.45;99513.91;3081197;46;20489;-66
2023/12/11 02:21:00;;;;;;;20.50;5.77;;;11.30;98.10;;;12.98;72.17;99507.59;3081533;46;21069;-66
2023/12/11 02:24:16;;;;;;;18.67;4.90;;;11.30;98.10;;;12.95;72.39;99510.69;3080679;46;20486;-67
2023/12/11 02:26:45;;;;;;;26.07;6.00;;;11.30;98.00;;;12.96;72.30;99512.28;3081140;46;20439;-66
2023/12/11 02:29:13;;;;;;;15.33;4.97;;;11.30;98.00;;;12.97;72.33;99511.28;3081124;46;21133;-66
2023/12/11 02:31:41;;;;;;;25.03;5.13;;;11.30;98.00;;;12.98;72.02;99510.22;3081098;46;21000;-66
2023/12/11 02:34:10;;;;;;;23.70;6.10;;;11.30;97.90;;;12.96;71.62;99509.66;3080294;46;20440;-65
2023/12/11 02:36:38;;;;;;;14.57;5.03;;;11.30;97.80;;;12.98;71.75;99512.09;3082427;46;20507;-66
2023/12/11 02:39:07;;;;;;;24.17;6.90;;;11.30;97.80;;;12.97;71.75;99508.63;3083499;46;20437;-66
2023/12/11 02:41:35;;;;;;;23.47;5.83;;;11.30;97.80;;;12.98;71.54;99504.16;3083561;46;20482;-64
2023/12/11 02:44:03;;;;;;;26.30;5.37;;;11.30;97.60;;;13.00;71.09;99502.91;3083124;46;20439;-65
2023/12/11 02:46:32;;;;;;;24.97;5.87;;;11.30;97.60;;;13.00;71.35;99502.09;3083690;46;21184;-66
2023/12/11 02:49:00;;;;;;;23.07;5.30;;;11.30;97.40;;;13.00;71.39;99496.81;3083487;46;20993;-66
2023/12/11 02:51:29;;;;;;;25.47;5.80;;;11.30;97.40;;;13.03;71.29;99501.63;3083293;46;20452;-68
2023/12/11 02:53:57;;;;;;;19.03;5.23;;;11.30;97.50;;;13.04;71.37;99492.69;3082969;46;20464;-66
2023/12/11 02:56:26;;;;;;;22.77;5.23;;;11.40;97.50;;;13.07;70.79;99487.00;3082901;46;20435;-66
2023/12/11 02:58:54;;;;;;;22.23;6.17;;;11.40;97.50;;;13.07;70.98;99501.03;3083234;46;20428;-66
2023/12/11 03:01:22;;;;;;;21.17;5.83;;;11.40;97.30;;;13.08;70.74;99494.72;3082999;46;20573;-66
2023/12/11 03:03:51;;;;;;;24.70;6.07;;;11.40;97.30;;;13.10;70.39;99486.59;3082642;46;20438;-65
2023/12/11 03:06:19;;;;;;;22.03;5.57;;;11.40;97.30;;;13.10;70.49;99490.00;3083174;46;20443;-64
2023/12/11 03:08:48;;;;;;;23.60;6.07;;;11.40;97.30;;;13.11;71.02;99489.00;3082968;46;20461;-66
2023/12/11 03:11:16;;;;;;;26.60;6.03;;;11.40;97.30;;;13.10;70.21;99490.00;3083178;46;20427;-64
2023/12/11 03:13:45;;;;;;;20.47;6.40;;;11.50;97.20;;;13.10;70.48;99487.38;3082665;46;21165;-66
2023/12/11 03:16:15;;;;;;;21.00;6.67;;;11.40;96.90;;;13.12;70.10;99487.94;3082962;46;20593;-68
2023/12/11 03:18:44;;;;;;;28.53;6.83;;;11.40;97.00;;;13.12;70.17;99479.22;3083176;46;20427;-66
2023/12/11 03:21:12;;;;;;;26.03;5.93;;;11.50;97.00;;;13.13;70.23;99478.19;3082936;46;20562;-66
2023/12/11 03:23:41;;;;;;;24.57;6.70;;;11.40;96.90;;;13.14;70.03;99485.91;3082577;46;21024;-65
2023/12/11 03:26:09;;;;;;;26.27;6.07;;;11.50;97.00;;;13.15;69.96;99484.88;3083044;46;21008;-66
2023/12/11 03:28:38;;;;;;;32.90;6.53;;;11.50;96.90;;;13.15;69.91;99481.41;3083098;46;20480;-66
2023/12/11 03:31:06;;;;;;;28.37;7.00;;;11.50;96.80;;;13.16;69.39;99475.94;3082881;46;20546;-66
2023/12/11 03:33:34;;;;;;;22.43;5.47;;;11.50;96.80;;;13.15;69.28;99481.41;3082457;46;20459;-66
2023/12/11 03:36:03;;;;;;;22.00;5.80;;;11.50;96.70;;;13.15;68.98;99476.94;3083072;46;20979;-66
2023/12/11 03:38:32;;;;;;;23.47;5.70;;;11.50;96.70;;;13.15;69.39;99476.94;3083295;43;20509;-66
2023/12/11 03:41:00;;;;;;;24.63;5.97;;;11.50;96.70;;;13.16;69.29;99470.63;3083065;46;21160;-67
2023/12/11 03:43:28;;;;;;;23.33;5.83;;;11.50;96.70;;;13.17;69.46;99477.53;3082139;46;20557;-66
2023/12/11 03:45:57;;;;;;;26.10;6.37;;;11.50;96.70;;;13.19;69.32;99478.09;3083004;46;20489;-70
2023/12/11 03:48:25;;;;;;;20.67;5.93;;;11.50;96.70;;;13.19;69.06;99467.53;3082816;46;20522;-68
2023/12/11 03:50:54;;;;;;;23.40;5.83;;;11.50;96.60;;;13.19;69.02;99469.38;3082887;46;20431;-66
2023/12/11 03:53:22;;;;;;;26.87;5.47;;;11.50;96.50;;;13.18;69.20;99463.28;3082291;46;20582;-66
2023/12/11 03:55:52;;;;;;;25.23;5.47;;;11.50;96.60;;;13.17;68.98;99456.38;3082300;43;21097;-67
2023/12/11 03:58:21;;;;;;;24.00;6.60;;;11.50;96.50;;;13.14;69.06;99454.22;3082512;46;21132;-66
2023/12/11 04:00:49;;;;;;;26.77;6.30;;;11.50;96.50;;;13.15;68.98;99457.63;3082358;46;20583;-66
2023/12/11 04:03:18;;;;;;;30.80;5.60;;;11.50;96.40;;;13.11;68.92;99457.28;3082390;46;21015;-66
2023/12/11 04:05:46;;;;;;;23.77;6.40;;;11.50;96.50;;;13.12;68.77;99458.88;3082798;46;20498;-66
2023/12/11 04:08:15;;;;;;;23.47;5.83;;;11.50;96.80;;;13.13;69.19;99455.22;3082685;46;20432;-65
2023/12/11 04:10:44;;;;;;;27.97;7.20;;;11.50;96.50;;;13.11;69.09;99452.00;3082735;46;20478;-66
2023/12/11 04:13:14;;;;;;;24.10;6.70;;;11.50;96.40;;;13.12;68.79;99456.25;3082032;46;20469;-66
2023/12/11 04:15:42;;;;;;;24.23;6.17;;;11.50;96.40;;;13.09;68.69;99454.06;3082064;46;20574;-66
2023/12/11 04:18:10;;;;;;;24.23;5.83;;;11.50;96.40;;;13.07;68.70;99440.28;3082488;46;20440;-66
2023/12/11 04:20:39;;;;;;;24.00;5.77;;;11.50;96.40;;;13.07;68.79;99445.56;3082392;46;20455;-66
2023/12/11 04:23:07;;;;;;;17.87;5.57;;;11.50;96.30;;;13.01;68.67;99446.41;3082214;46;20452;-66
2023/12/11 04:25:36;;;;;;;28.07;6.27;;;11.50;96.30;;;13.01;68.57;99449.03;3082510;46;20546;-66
2023/12/11 04:28:04;;;;;;;27.67;7.13;;;11.40;96.30;;;13.01;69.18;99446.41;3081950;46;20568;-64
2023/12/11 04:30:33;;;;;;;25.27;6.00;;;11.50;96.30;;;13.02;69.14;99444.56;3082315;46;20436;-68
2023/12/11 04:33:02;;;;;;;34.90;7.10;;;11.40;96.40;;;12.99;68.47;99443.19;3082041;46;20467;-67
2023/12/11 04:35:30;;;;;;;18.13;5.93;;;11.40;96.30;;;12.93;68.52;99438.78;3081938;46;20443;-66
2023/12/11 04:37:58;;;;;;;19.73;5.30;;;11.40;96.20;;;12.88;68.73;99442.06;3081959;46;20446;-66
2023/12/11 04:40:27;;;;;;;25.80;6.00;;;11.40;96.10;;;12.85;69.05;99434.63;3082034;46;20431;-67
2023/12/11 04:42:55;;;;;;;32.07;6.70;;;11.30;96.20;;;12.82;68.75;99436.88;3081676;46;21172;-66
2023/12/11 04:45:23;;;;;;;27.83;6.97;;;11.40;96.20;;;12.81;68.88;99435.28;3081978;46;20988;-66
2023/12/11 04:47:52;;;;;;;22.73;6.20;;;11.30;96.20;;;12.81;68.79;99428.16;3082365;46;21073;-64
2023/12/11 04:50:20;;;;;;;24.37;6.20;;;11.40;96.20;;;12.83;68.96;99427.94;3082295;46;20490;-64
2023/12/11 04:52:49;;;;;;;27.53;7.53;;;11.30;96.30;;;12.85;69.05;99428.53;3081798;46;21089;-67
2023/12/11 04:55:17;;;;;;;20.57;6.17;;;11.30;96.30;;;12.85;69.18;99423.25;3082043;46;20577;-66
2023/12/11 04:57:46;;;;;;;26.87;6.37;;;11.30;96.40;;;12.86;69.24;99427.47;3081897;46;20432;-66
2023/12/11 05:00:15;;;;;;;23.90;6.07;;;11.30;96.80;;;12.86;69.27;99423.00;3081520;46;20516;-66
2023/12/11 05:02:44;;;;;;;23.23;6.17;;;11.30;96.50;;;12.83;69.21;99417.38;3081659;46;20517;-65
2023/12/11 05:05:14;;;;;;;18.83;5.37;;;11.20;96.40;;;12.82;69.15;99413.94;3081932;46;20430;-66
2023/12/11 05:07:42;;;;;;;21.33;6.50;;;11.30;96.50;;;12.76;68.96;99411.38;3081949;46;20541;-66
2023/12/11 05:10:11;;;;;;;22.80;5.37;;;11.30;96.50;;;12.76;69.45;99411.38;3082020;46;20465;-65
2023/12/11 05:12:39;;;;;;;28.93;6.00;;;11.30;96.50;;;12.75;69.60;99420.31;3081591;46;20452;-64
2023/12/11 05:15:08;;;;;;;28.70;7.07;;;11.20;96.60;;;12.75;69.46;99409.75;3081497;46;21105;-67
2023/12/11 05:17:37;;;;;;;24.77;6.63;;;11.20;96.60;;;12.71;69.66;99413.88;3081762;46;20468;-66
2023/12/11 05:20:06;;;;;;;27.73;5.87;;;11.20;96.60;;;12.67;69.83;99412.72;3081736;46;20567;-66
2023/12/11 05:22:35;;;;;;;25.97;5.70;;;11.20;96.60;;;12.62;69.78;99409.91;3081590;46;20911;-66
2023/12/11 05:25:04;;;;;;;24.53;6.27;;;11.20;96.70;;;12.59;70.26;99411.16;3081308;46;20494;-64
2023/12/11 05:27:33;;;;;;;30.37;7.47;;;11.20;96.80;;;12.58;70.35;99398.16;3081616;46;20462;-66
2023/12/11 05:30:01;;;;;;;31.20;7.40;;;11.20;96.80;;;12.57;70.41;99399.22;3082005;46;20450;-66
2023/12/11 05:32:30;;;;;;;25.47;7.13;;;11.10;96.90;;;12.51;71.07;99398.25;3081278;46;21017;-65
2023/12/11 05:34:58;;;;;;;23.20;5.60;;;11.10;97.00;;;12.48;70.88;99393.41;3081135;46;20468;-66
2023/12/11 05:37:26;;;;;;;26.03;6.73;;;11.10;97.00;;;12.47;71.04;99385.72;3081380;46;20482;-65
2023/12/11 05:39:55;;;;;;;24.50;5.97;;;11.10;97.10;;;12.38;71.44;99397.59;3081794;46;20546;-65
2023/12/11 05:42:43;;;;;;;22.30;6.13;;;11.00;97.20;;;12.28;71.87;99395.44;3081663;46;21062;-65
2023/12/11 05:45:12;;;;;;;18.77;6.63;;;11.10;97.30;;;12.28;72.11;99392.00;3081309;46;20435;-66
2023/12/11 05:47:40;;;;;;;25.63;6.90;;;11.00;97.30;;;12.34;71.74;99385.88;3081459;46;21108;-66
2023/12/11 05:50:09;;;;;;;24.90;5.90;;;11.00;97.40;;;12.40;71.93;99384.97;3081289;46;21067;-67
2023/12/11 05:52:38;;;;;;;20.77;5.83;;;11.00;97.50;;;12.43;71.77;99382.69;3081232;46;20432;-66
2023/12/11 05:55:06;;;;;;;14.60;5.17;;;11.00;97.50;;;12.48;71.83;99384.69;3081188;46;20439;-65
2023/12/11 05:57:34;;;;;;;18.10;5.43;;;10.90;97.60;;;12.48;71.53;99382.06;3081239;46;20483;-66
2023/12/11 06:00:05;;;;;;;16.17;4.90;;;11.00;97.60;;;12.51;71.40;99376.31;3081264;46;21089;-66
2023/12/11 06:02:33;;;;;;;17.13;4.50;;;10.90;97.60;;;12.51;71.44;99371.03;3081275;46;20447;-65
2023/12/11 06:05:02;;;;;;;12.50;4.57;;;11.00;97.70;;;12.50;71.89;99374.72;3080902;46;20520;-67
2023/12/11 06:07:31;;;;;;;16.83;5.03;;;11.00;97.80;;;12.48;71.92;99374.16;3081444;46;20489;-68
2023/12/11 06:09:59;;;;;;;11.60;4.47;;;11.00;97.80;;;12.46;72.29;99374.34;3080702;46;20431;-66
2023/12/11 06:12:28;;;;;;;15.37;5.37;;;11.00;97.80;;;12.46;72.45;99376.16;3080295;46;20457;-67
2023/12/11 06:14:57;;;;;;;16.63;5.83;;;11.00;97.90;;;12.46;72.38;99376.16;3080744;46;20635;-65
2023/12/11 06:17:25;;;;;;;17.97;5.83;;;11.00;97.90;;;12.46;72.33;99362.97;3080859;46;20460;-65
2023/12/11 06:19:53;;;;;;;21.13;6.33;;;11.00;98.00;;;12.43;72.73;99374.78;3080980;46;20436;-66
2023/12/11 06:22:22;;;;;;;20.77;5.57;;;11.00;98.10;;;12.45;72.40;99374.56;3080598;46;21142;-66
2023/12/11 06:24:50;;;;;;;19.87;6.33;;;11.00;98.10;;;12.48;72.64;99374.16;3080687;46;20565;-67
2023/12/11 06:27:19;;;;;;;21.70;6.87;;;11.00;98.10;;;12.49;72.54;99381.00;3080954;46;20430;-66
2023/12/11 06:29:47;;;;;;;21.43;5.77;;;11.00;98.20;;;12.43;73.12;99368.72;3080959;46;20571;-66
2023/12/11 06:32:15;;;;;;;21.60;6.13;;;11.00;98.40;;;12.40;73.12;99374.44;3081082;46;20597;-67
2023/12/11 06:34:44;;;;;;;21.57;6.33;;;11.00;98.30;;;12.36;73.53;99368.75;3080100;46;20573;-66
2023/12/11 06:37:12;;;;;;;18.87;5.80;;;11.00;98.40;;;12.34;73.75;99370.03;3079839;46;20482;-66
2023/12/11 06:39:41;;;;;;;20.23;6.20;;;11.00;98.40;;;12.37;73.39;99374.84;3080512;46;20500;-67
2023/12/11 06:42:09;;;;;;;19.90;6.43;;;10.90;98.40;;;12.36;73.24;99371.41;3081015;46;20996;-66
2023/12/11 06:44:38;;;;;;;23.07;6.87;;;10.90;98.40;;;12.40;73.38;99369.97;3080232;46;20443;-66
2023/12/11 06:47:06;;;;;;;19.77;6.43;;;10.90;98.40;;;12.46;73.39;99370.88;3080679;46;20427;-65
2023/12/11 06:49:37;;;;;;;18.87;6.00;;;10.90;98.50;;;12.50;72.93;99366.81;3080209;46;20458;-65
2023/12/11 06:52:06;;;;;;;23.00;6.63;;;10.90;98.50;;;12.51;73.12;99365.75;3079850;46;20432;-65
2023/12/11 06:54:34;;;;;;;29.13;7.30;;;11.00;98.50;;;12.50;72.92;99359.69;3080099;46;21086;-66
2023/12/11 06:57:03;;;;;;;27.80;7.10;;;11.00;98.40;;;12.52;72.64;99368.19;3080688;46;21181;-66
2023/12/11 06:59:31;;;;;;;25.23;6.13;;;11.00;98.40;;;12.52;72.82;99362.09;3080510;46;20909;-68
2023/12/11 07:01:59;;;;;;;20.13;6.57;;;11.00;98.30;;;12.53;72.52;99367.16;3080594;46;20577;-66
2023/12/11 07:04:28;;;;;;;19.17;5.57;;;11.00;98.30;;;12.47;72.33;99368.06;3079944;46;20466;-65
2023/12/11 07:06:57;;;;;;;18.10;5.83;;;11.00;98.40;;;12.47;72.63;99370.69;3079301;43;20561;-66
2023/12/11 07:09:29;;;;;;;25.40;6.70;;;11.00;98.10;;;12.49;72.91;99368.63;3080369;46;20438;-63
2023/12/11 07:11:57;;;;;;;20.80;6.37;;;11.00;98.20;;;12.54;72.78;99367.97;3080264;46;20511;-66
2023/12/11 07:14:26;;;;;;;21.83;6.40;;;11.00;98.20;;;12.56;72.23;99361.44;3079681;46;20481;-66
2023/12/11 07:16:54;;;;;;;25.13;6.37;;;11.00;98.20;;;12.58;72.50;99361.22;3079821;46;20565;-67
2023/12/11 07:19:22;;;;;;;16.87;5.67;;;11.00;98.10;;;12.57;72.43;99359.63;3080277;46;21125;-66
2023/12/11 07:21:51;;;;;;;24.30;5.43;;;11.10;98.10;;;12.58;71.99;99355.94;3080872;46;20452;-65
2023/12/11 07:24:19;;;;;;;17.60;5.43;;;11.10;98.10;;;12.54;71.73;99362.69;3082065;46;20467;-66
2023/12/11 07:26:48;;;;;;;20.47;5.63;;;11.00;97.80;;;12.54;71.95;99370.59;3082916;46;21113;-64
2023/12/11 07:29:16;;;;;;;18.20;5.40;;;11.10;97.80;;;12.54;71.84;99362.69;3082672;46;20550;-64
2023/12/11 07:31:44;;;;;;;24.33;5.50;;;11.00;97.80;;;12.57;71.73;99367.53;3082692;46;20427;-64
2023/12/11 07:34:13;;;;;;;16.10;5.00;;;11.10;97.90;;;12.57;71.87;99359.63;3081858;46;20589;-66
2023/12/11 07:36:41;;;;;;;20.47;5.43;;;11.10;97.80;;;12.58;71.78;99355.94;3081910;46;20546;-66
2023/12/11 07:39:10;;;;;;;19.07;5.60;;;11.10;97.80;;;12.61;71.76;99366.06;3082811;46;20428;-66
2023/12/11 07:41:38;;;;;;;22.43;4.97;;;11.10;97.80;;;12.61;71.89;99363.41;3082701;46;20460;-66
2023/12/11 07:44:07;;;;;;;29.17;10.50;;;11.10;97.80;;;12.63;71.67;99364.81;3081526;46;20455;-67
2023/12/11 07:46:36;;;;;;;20.40;5.67;;;11.10;97.90;;;12.61;71.86;99368.69;3080953;46;20453;-66
2023/12/11 07:49:08;;;;;;;21.47;6.17;;;11.10;97.80;;;12.59;71.78;99362.84;3082305;46;20427;-66
2023/12/11 07:51:37;;;;;;;18.37;6.93;;;11.10;97.70;;;12.64;71.89;99365.63;3082370;46;21167;-65
2023/12/11 07:54:05;;;;;;;19.47;5.10;;;11.10;97.80;;;12.68;71.89;99364.13;3081833;46;20438;-67
2023/12/11 07:56:35;;;;;;;13.20;4.37;;;11.10;97.90;;;12.71;71.75;99366.34;3082368;46;21160;-64
2023/12/11 07:59:04;;;;;;;17.90;5.30;;;11.10;97.80;;;12.66;71.30;99368.84;3082480;46;20457;-66
2023/12/11 08:01:32;;;;;;;18.87;5.80;;;11.10;97.60;;;12.59;71.49;99357.56;3082497;46;20430;-67
2023/12/11 08:04:01;;;;;;;22.03;5.80;;;11.20;97.50;;;12.55;71.44;99356.41;3082261;46;20443;-66
2023/12/11 08:06:30;;;;;;;21.87;5.17;;;11.20;97.50;;;12.52;71.90;99362.09;3081412;46;20432;-68
2023/12/11 08:09:00;;;;;;;20.20;6.33;;;11.10;97.50;;;12.56;71.90;99364.09;3082153;46;21037;-66
2023/12/11 08:11:28;;;;;;;20.50;5.83;;;11.10;97.60;;;12.62;71.99;99359.75;3081993;46;21088;-67
2023/12/11 08:13:57;;;;;;;17.60;4.43;;;11.10;97.60;;;12.65;71.32;99360.09;3081913;46;20455;-66
2023/12/11 08:16:25;;;;;;;15.07;4.60;;;11.10;97.70;;;12.66;71.11;99363.56;3082189;46;20453;-66
2023/12/11 08:18:54;;;;;;;15.57;4.50;;;11.10;97.50;;;12.69;71.13;99368.41;3082174;46;20527;-66
2023/12/11 08:21:23;;;;;;;12.20;4.00;;;11.10;97.40;;;12.68;71.05;99366.78;3082086;46;20423;-66
2023/12/11 08:23:51;;;;;;;20.40;5.60;;;11.20;97.40;;;12.74;71.04;99371.19;3081888;46;20445;-66
2023/12/11 08:26:20;;;;;;;10.20;3.67;;;11.20;97.50;;;12.78;71.06;99367.06;3081815;46;21039;-67
2023/12/11 08:28:49;;;;;;;14.03;4.53;;;11.20;97.40;;;12.74;70.08;99360.63;3082342;46;20435;-66
2023/12/11 08:31:17;;;;;;;18.37;3.90;;;11.20;97.10;;;12.66;70.20;99359.09;3082017;46;20574;-66
2023/12/11 08:33:46;;;;;;;18.77;4.10;;;11.20;96.90;;;12.63;70.65;99358.72;3080809;46;20453;-63
2023/12/11 08:36:15;;;;;;;10.90;3.27;;;11.20;96.90;;;12.67;70.84;99365.19;3082077;46;20439;-66
2023/12/11 08:38:43;;;;;;;10.83;3.77;;;11.20;97.00;;;12.73;70.72;99359.81;3081986;46;20460;-66
2023/12/11 08:41:11;;;;;;;10.73;3.33;;;11.20;97.10;;;12.73;70.33;99365.09;3082035;46;20576;-67
2023/12/11 08:43:40;;;;;;;14.87;3.70;;;11.20;97.00;;;12.71;70.20;99367.16;3079855;43;20440;-66
2023/12/11 08:46:08;;;;;;;6.70;2.73;;;11.20;96.90;;;12.68;70.07;99357.03;3080067;46;20565;-67
2023/12/11 08:48:37;;;;;;;11.43;3.23;;;11.20;96.80;;;12.70;70.07;99368.19;3080265;46;20468;-67
2023/12/11 08:51:06;;;;;;;9.40;2.87;;;11.20;96.90;;;12.70;69.83;99360.25;3078996;46;20453;-66
2023/12/11 08:53:34;;;;;;;10.67;3.13;;;11.20;96.80;;;12.70;69.93;99368.19;3080477;46;20479;-66
2023/12/11 08:56:03;;;;;;;9.47;2.80;;;11.20;96.80;;;12.70;70.02;99359.44;3079811;43;20465;-67
2023/12/11 08:58:31;;;;;;;9.47;2.93;;;11.20;96.80;;;12.73;70.01;99359.81;3076809;46;20469;-67
2023/12/11 09:01:00;;;;;;;8.37;2.73;;;11.20;96.80;;;12.76;69.91;99363.84;3079171;46;21351;-68
2023/12/11 09:03:28;;;;;;;8.93;2.93;;;11.30;96.80;;;12.79;69.43;99368.66;3078939;46;20490;-68
2023/12/11 09:05:59;;;;;;;6.30;3.00;;;11.20;96.70;;;12.81;69.26;99367.41;3079040;46;21020;-64
2023/12/11 09:08:28;;;;;;;9.30;2.43;;;11.30;96.70;;;12.84;69.73;99360.88;3076593;43;20465;-67
2023/12/11 09:10:57;;;;;;;6.93;3.13;;;11.30;96.70;;;12.84;68.95;99360.88;3076058;46;20448;-67
2023/12/11 09:13:26;;;;;;;9.57;2.80;;;11.30;96.60;;;12.84;69.45;99355.59;3075926;46;20467;-68
2023/12/11 09:15:56;;;;;;;6.53;2.27;;;11.30;96.50;;;12.85;69.14;99354.59;3076572;46;20447;-65
2023/12/11 09:18:25;;;;;;;5.30;2.03;;;11.30;96.70;;;12.87;69.22;99355.16;3078699;46;20492;-67
2023/12/11 09:20:54;;;;;;;7.83;2.53;;;11.30;96.50;;;12.85;68.77;99357.22;3078096;43;20529;-67
2023/12/11 09:23:23;;;;;;;5.07;2.47;;;11.30;96.40;;;12.83;68.93;99360.09;3078716;46;20467;-66
2023/12/11 09:25:51;;;;;;;5.90;2.30;;;11.30;96.40;;;12.86;69.09;99364.91;3077620;46;21003;-66
2023/12/11 09:28:20;;;;;;;8.20;2.60;;;11.30;96.50;;;12.86;68.93;99358.81;3078626;46;20483;-68
2023/12/11 09:30:48;;;;;;;9.93;2.90;;;11.30;96.40;;;12.87;69.35;99349.88;3077077;46;20466;-65
2023/12/11 09:33:17;;;;;;;10.63;3.57;;;11.30;96.50;;;12.89;69.31;99355.75;3079307;46;20530;-67
2023/12/11 09:35:46;;;;;;;9.53;3.30;;;11.30;96.50;;;12.88;69.29;99349.66;3078157;46;20504;-68
2023/12/11 09:38:15;;;;;;;6.87;3.47;;;11.40;96.60;;;12.93;69.61;99349.00;3070733;46;20935;-69
2023/12/11 09:40:47;;;;;;;8.03;3.40;;;11.40;96.70;;;12.94;69.62;99350.59;3071932;43;20475;-69
2023/12/11 09:43:19;;;;;;;11.70;3.30;;;11.40;96.70;;;12.97;69.35;99350.16;3068873;46;20444;-69
2023/12/11 09:45:51;;;;;;;9.73;3.90;;;11.40;96.70;;;12.95;69.33;99352.22;3069813;46;20471;-69
2023/12/11 09:48:20;;;;;;;12.40;4.40;;;11.40;96.80;;;12.98;69.64;99345.69;3067220;46;20447;-70
2023/12/11 09:50:53;;;;;;;13.47;3.37;;;11.40;96.80;;;13.04;69.54;99353.53;3067106;46;20584;-69
2023/12/11 09:53:22;;;;;;;14.87;3.67;;;11.50;96.80;;;13.08;69.59;99351.25;3065048;43;20468;-71
2023/12/11 09:55:51;;;;;;;15.63;4.33;;;11.50;96.90;;;13.12;69.55;99347.94;3068300;46;21249;-68
2023/12/11 09:58:22;;;;;;;13.77;4.53;;;11.50;97.00;;;13.17;69.38;99350.69;3067830;46;20448;-68
2023/12/11 10:00:51;;;;;;;12.07;4.30;;;11.50;97.00;;;13.16;69.65;99346.47;3070642;46;20585;-70
2023/12/11 10:03:20;;;;;;;13.13;3.97;;;11.60;97.00;;;13.16;69.47;99346.47;3075672;46;20596;-69
2023/12/11 10:05:48;;;;;;;12.07;4.13;;;11.60;96.90;;;13.22;69.95;99348.19;3077657;46;20436;-67
2023/12/11 10:08:17;;;;;;;14.50;4.50;;;11.60;97.00;;;13.29;69.60;99348.91;3078563;46;21082;-68
2023/12/11 10:10:46;;;;;;;15.80;4.93;;;11.70;97.00;;;13.41;69.05;99346.28;3078253;46;20541;-68
2023/12/11 10:13:23;;;;;;;11.63;3.60;;;11.70;97.00;;;13.47;68.90;99351.50;3078381;46;20464;-67
2023/12/11 10:15:52;;;;;;;11.07;3.40;;;11.80;97.00;;;13.54;68.97;99351.38;3075261;46;20435;-67
2023/12/11 10:18:21;;;;;;;17.33;4.03;;;11.80;96.90;;;13.62;68.67;99342.31;3075964;43;20448;-68
2023/12/11 10:20:57;;;;;;;8.17;3.07;;;11.90;96.90;;;13.60;67.89;99350.44;3076409;46;20505;-68
2023/12/11 10:23:25;;;;;;;13.57;3.33;;;11.90;96.50;;;13.57;68.15;99345.66;3076547;46;20473;-69